createdAt,value
2022-08-26T05:04:33.953Z,69.47
2022-08-26T05:07:03.376Z,68.62
2022-08-26T05:09:32.167Z,67.98
2022-08-26T05:12:00.966Z,67.53
2022-08-26T05:14:29.885Z,66.89
2022-08-26T05:16:59.161Z,66.32
2022-08-26T05:19:28.055Z,65.32
2022-08-26T05:21:56.941Z,64.79
2022-08-26T05:24:25.849Z,64.39
2022-08-26T05:26:56.447Z,63.53
2022-08-26T05:29:25.450Z,62.76
2022-08-26T05:31:55.956Z,62.09
2022-08-26T05:34:25.731Z,62.69
2022-08-26T05:36:59.792Z,62.12
2022-08-26T05:39:28.815Z,60.87
2022-08-26T05:41:57.494Z,60.97
2022-08-26T05:44:26.279Z,60.48
2022-08-26T05:46:54.967Z,60.31
2022-08-26T05:49:26.410Z,58.94
2022-08-26T05:51:55.737Z,56.26
2022-08-26T05:54:24.615Z,55.50
2022-08-26T05:56:53.513Z,54.85
2022-08-26T05:59:24.654Z,54.92
2022-08-26T06:01:57.483Z,53.28
2022-08-26T06:04:29.148Z,51.91
2022-08-26T06:06:59.627Z,52.16
2022-08-26T06:09:28.442Z,51.33
2022-08-26T06:11:59.369Z,50.18
2022-08-26T06:14:28.129Z,50.48
2022-08-26T06:16:58.047Z,49.76
2022-08-26T06:19:32.651Z,49.66
2022-08-26T06:22:23.275Z,49.80
2022-08-26T06:25:11.118Z,49.71
2022-08-26T06:27:39.767Z,49.33
2022-08-26T06:30:10.119Z,49.13
2022-08-26T06:32:39.123Z,48.93
2022-08-26T06:35:12.239Z,48.29
2022-08-26T06:37:41.508Z,48.50
2022-08-26T06:40:11.444Z,48.37
2022-08-26T06:42:40.426Z,47.48
2022-08-26T06:45:09.587Z,47.66
2022-08-26T06:47:39.869Z,47.39
2022-08-26T06:50:09.075Z,46.98
2022-08-26T06:52:37.928Z,46.87
2022-08-26T06:55:07.554Z,46.89
2022-08-26T06:57:37.690Z,46.40
2022-08-26T07:00:10.965Z,46.09
2022-08-26T07:02:39.845Z,46.14
2022-08-26T07:05:09.402Z,45.80
2022-08-26T07:07:38.619Z,45.33
2022-08-26T07:10:08.945Z,45.91
2022-08-26T07:12:37.527Z,45.46
2022-08-26T07:15:07.474Z,45.00
2022-08-26T07:17:37.066Z,44.51
2022-08-26T07:20:10.180Z,44.16
2022-08-26T07:22:39.781Z,43.81
2022-08-26T07:25:11.761Z,44.19
2022-08-26T07:27:41.162Z,44.17
2022-08-26T07:30:10.760Z,43.77
2022-08-26T07:32:43.759Z,42.97
2022-08-26T07:35:12.376Z,42.63
2022-08-26T07:37:41.101Z,43.07
2022-08-26T07:40:10.435Z,43.14
2022-08-26T07:42:39.992Z,42.68
2022-08-26T07:45:09.276Z,42.40
2022-08-26T07:47:38.026Z,42.05
2022-08-26T07:50:07.180Z,41.73
2022-08-26T07:52:37.904Z,41.66
2022-08-26T07:55:10.153Z,41.64
2022-08-26T07:57:39.973Z,41.49
2022-08-26T08:00:13.151Z,40.92
2022-08-26T08:02:47.089Z,39.91
2022-08-26T08:05:18.920Z,39.81
2022-08-26T08:07:48.927Z,40.18
2022-08-26T08:10:26.685Z,40.14
2022-08-26T08:12:57.764Z,40.15
2022-08-26T08:15:31.401Z,39.86
2022-08-26T08:18:01.091Z,39.43
2022-08-26T08:20:30.787Z,39.38
2022-08-26T08:23:02.166Z,38.60
2022-08-26T08:25:32.707Z,38.72
2022-08-26T08:28:01.442Z,37.59
2022-08-26T13:02:37.969Z,17.50
2022-08-26T13:05:07.464Z,17.15
2022-08-26T13:07:36.754Z,17.33
2022-08-26T13:10:06.092Z,17.74
2022-08-26T13:12:37.637Z,17.52
2022-08-26T13:15:07.942Z,17.60
2022-08-26T13:17:36.929Z,17.95
2022-08-26T13:20:06.516Z,17.83
2022-08-26T13:22:35.251Z,18.28
2022-08-26T13:25:04.612Z,18.10
2022-08-26T13:27:33.439Z,17.82
2022-08-26T13:30:02.429Z,17.45
2022-08-26T13:32:32.978Z,17.43
2022-08-26T13:35:05.572Z,17.52
2022-08-26T13:37:35.624Z,17.75
2022-08-26T13:40:07.472Z,18.11
2022-08-26T13:42:36.337Z,18.90
2022-08-26T13:45:06.357Z,18.84
2022-08-26T13:47:35.061Z,19.05
2022-08-26T13:50:05.862Z,19.25
2022-08-26T13:52:34.698Z,19.39
2022-08-26T13:55:04.057Z,19.96
2022-08-26T13:57:32.976Z,19.75
2022-08-26T14:00:01.585Z,19.84
2022-08-26T14:02:38.286Z,19.85
2022-08-26T14:05:08.580Z,19.72
2022-08-26T14:07:37.401Z,19.34
2022-08-26T14:10:07.511Z,19.35
2022-08-26T14:12:36.129Z,19.98
2022-08-26T14:15:05.358Z,19.39
2022-08-26T14:17:34.115Z,19.69
2022-08-26T14:20:04.876Z,19.71
2022-08-26T14:22:34.340Z,19.60
2022-08-26T14:25:03.126Z,19.67
2022-08-26T14:27:31.689Z,18.95
2022-08-26T14:30:00.392Z,18.55
2022-08-26T14:32:30.091Z,18.59
2022-08-26T14:34:58.902Z,18.61
2022-08-26T14:37:27.984Z,19.52
2022-08-26T14:39:57.230Z,19.74
2022-08-26T14:42:31.428Z,20.28
2022-08-26T14:45:04.406Z,20.42
2022-08-26T14:47:33.041Z,20.94
2022-08-26T14:50:01.961Z,20.88
2022-08-26T14:52:50.631Z,20.84
2022-08-26T14:55:19.441Z,21.28
2022-08-26T14:57:48.911Z,21.37
2022-08-26T15:00:19.136Z,21.61
2022-08-26T15:02:48.064Z,21.80
2022-08-26T15:05:17.006Z,22.10
2022-08-26T15:07:46.177Z,22.38
2022-08-26T15:10:17.167Z,22.80
2022-08-26T15:12:47.082Z,22.86
2022-08-26T15:15:18.716Z,23.48
2022-08-26T15:17:48.037Z,23.64
2022-08-26T15:20:18.287Z,23.38
2022-08-26T15:22:47.657Z,23.40
2022-08-26T15:25:17.660Z,23.65
2022-08-26T15:27:46.501Z,23.42
2022-08-26T15:30:16.977Z,23.60
2022-08-26T15:32:45.999Z,23.49
2022-08-26T15:35:15.090Z,23.83
2022-08-26T15:37:43.897Z,23.96
2022-08-26T15:40:12.881Z,24.23
2022-08-26T15:42:41.690Z,24.15
2022-08-26T15:45:11.356Z,23.91
2022-08-26T15:48:10.888Z,24.41
2022-08-26T15:50:54.008Z,24.62
2022-08-26T15:53:24.520Z,24.74
2022-08-26T15:55:58.061Z,24.85
2022-08-26T15:58:29.246Z,24.77
2022-08-26T16:00:58.172Z,25.31
2022-08-26T16:03:26.948Z,25.26
2022-08-26T16:05:55.726Z,25.19
2022-08-26T16:08:24.861Z,25.66
2022-08-26T16:10:58.040Z,25.65
2022-08-26T16:13:26.938Z,25.71
2022-08-26T16:16:08.757Z,25.62
2022-08-26T16:18:37.932Z,25.94
2022-08-26T16:21:13.880Z,26.41
2022-08-26T16:23:45.331Z,26.82
2022-08-26T16:26:22.826Z,27.34
2022-08-26T16:28:53.293Z,27.55
2022-08-26T16:31:23.006Z,27.70
2022-08-26T16:33:52.160Z,28.09
2022-08-26T16:36:20.935Z,28.59
2022-08-26T16:38:56.577Z,28.68
2022-08-26T16:41:29.721Z,29.05
2022-08-26T16:43:59.306Z,29.45
2022-08-26T16:46:29.395Z,29.91
2022-08-26T16:48:59.329Z,30.34
2022-08-26T16:51:28.690Z,30.70
2022-08-26T16:53:59.167Z,31.12
2022-08-26T16:56:34.115Z,31.61
2022-08-26T16:59:06.049Z,32.09
2022-08-26T17:01:35.105Z,32.40
2022-08-26T17:04:04.709Z,32.71
2022-08-26T17:06:34.497Z,33.03
2022-08-26T17:09:03.581Z,33.44
2022-08-26T17:11:32.310Z,33.96
2022-08-26T17:14:01.554Z,34.32
2022-08-26T17:16:30.573Z,34.91
2022-08-26T17:19:00.738Z,35.27
2022-08-26T17:21:29.876Z,35.65
2022-08-26T17:23:58.649Z,35.84
2022-08-26T17:26:28.369Z,36.31
2022-08-26T17:28:57.144Z,36.89
2022-08-26T17:31:27.158Z,37.12
2022-08-26T17:33:56.187Z,37.30
2022-08-26T17:36:27.850Z,37.84
2022-08-26T17:38:58.997Z,38.09
2022-08-26T17:41:27.942Z,38.99
2022-08-26T17:43:56.678Z,39.14
2022-08-26T17:46:25.587Z,39.20
2022-08-26T17:48:55.461Z,39.28
2022-08-26T17:51:24.322Z,39.92
2022-08-26T17:53:53.483Z,40.43
2022-08-26T17:56:27.602Z,40.52
2022-08-26T17:59:02.347Z,40.54
2022-08-26T18:01:33.199Z,41.16
2022-08-26T18:04:03.938Z,40.94
2022-08-26T18:06:33.438Z,41.02
2022-08-26T18:09:02.258Z,41.19
2022-08-26T18:11:31.514Z,42.18
2022-08-26T18:14:00.597Z,43.06
2022-08-26T18:16:32.010Z,43.73
2022-08-26T18:19:01.521Z,44.70
2022-08-26T18:21:30.414Z,45.06
2022-08-26T18:23:59.722Z,45.75
2022-08-26T18:26:36.273Z,46.24
2022-08-26T18:29:07.379Z,46.48
2022-08-26T18:31:36.202Z,46.81
2022-08-26T18:34:06.158Z,47.37
2022-08-26T18:36:37.507Z,47.83
2022-08-26T18:39:08.895Z,47.89
2022-08-26T18:41:49.420Z,48.55
2022-08-26T18:44:21.661Z,49.31
2022-08-26T18:46:52.134Z,48.74
2022-08-26T18:49:22.369Z,49.12
2022-08-26T18:51:52.663Z,49.73
2022-08-26T18:54:22.108Z,49.95
2022-08-26T18:56:50.962Z,50.54
2022-08-26T18:59:19.890Z,50.89
2022-08-26T19:01:59.709Z,50.67
2022-08-26T19:04:28.625Z,50.72
2022-08-26T19:06:57.295Z,51.78
2022-08-26T19:09:27.305Z,51.92
2022-08-26T19:14:31.411Z,52.79
2022-08-26T19:17:00.706Z,53.22
2022-08-26T19:19:29.892Z,53.33
2022-08-26T19:21:58.643Z,53.59
2022-08-26T19:24:28.359Z,53.81
2022-08-26T19:27:01.552Z,54.42
2022-08-26T19:29:35.858Z,54.39
2022-08-26T19:32:05.149Z,53.87
2022-08-26T19:34:34.579Z,54.54
2022-08-26T19:37:03.307Z,54.65
2022-08-26T19:39:31.892Z,54.07
2022-08-26T19:42:00.662Z,54.21
2022-08-26T19:44:48.042Z,53.61
2022-08-26T19:47:16.921Z,53.86
2022-08-26T19:49:46.122Z,54.28
2022-08-26T19:52:14.833Z,53.83
2022-08-26T19:54:44.640Z,53.69
2022-08-26T19:57:13.476Z,54.92
2022-08-26T19:59:42.665Z,55.42
2022-08-26T20:02:11.626Z,55.36
2022-08-26T20:04:41.847Z,55.69
2022-08-26T20:07:13.035Z,55.98
2022-08-26T20:09:46.463Z,55.98
2022-08-26T20:12:16.120Z,56.35
2022-08-26T20:14:45.714Z,56.67
2022-08-26T20:17:16.240Z,56.75
2022-08-26T20:20:03.233Z,56.06
2022-08-26T20:22:33.121Z,56.02
2022-08-26T20:25:02.398Z,55.76
2022-08-26T20:27:37.789Z,57.25
2022-08-26T20:30:10.403Z,57.76
2022-08-26T20:32:40.233Z,58.29
2022-08-26T20:35:13.232Z,58.88
2022-08-26T20:37:42.492Z,59.27
2022-08-26T20:40:14.087Z,59.32
2022-08-26T20:42:43.017Z,59.80
2022-08-26T20:45:12.149Z,60.22
2022-08-26T20:47:43.944Z,60.10
2022-08-26T20:50:12.693Z,60.37
2022-08-26T20:52:41.391Z,59.02
2022-08-26T20:55:10.588Z,60.40
2022-08-26T20:57:39.404Z,61.84
2022-08-26T21:00:09.888Z,62.30
2022-08-26T21:02:38.640Z,62.39
2022-08-26T21:05:08.704Z,62.32
2022-08-26T21:07:37.539Z,62.40
2022-08-26T21:10:07.294Z,62.85
2022-08-26T21:12:36.173Z,63.31
2022-08-26T21:15:06.894Z,63.60
2022-08-26T21:17:35.562Z,63.68
2022-08-26T21:20:04.945Z,62.87
2022-08-26T21:22:34.747Z,62.61
2022-08-26T21:25:04.248Z,61.67
2022-08-26T21:27:35.245Z,61.99
2022-08-26T21:30:05.030Z,62.23
2022-08-26T21:32:33.747Z,62.39
2022-08-26T21:35:02.610Z,63.28
2022-08-26T21:37:31.638Z,63.40
2022-08-26T21:40:05.603Z,63.49
2022-08-26T21:42:35.932Z,63.02
2022-08-26T21:45:06.612Z,62.66
2022-08-26T21:47:35.365Z,63.00
2022-08-26T21:50:05.963Z,62.03
2022-08-26T21:52:35.093Z,62.40
2022-08-26T21:55:09.050Z,63.29
2022-08-26T21:57:38.420Z,63.97
2022-08-26T22:00:10.333Z,63.58
2022-08-26T22:02:39.449Z,64.41
2022-08-26T22:05:08.917Z,64.42
2022-08-26T22:07:37.878Z,64.14
2022-08-26T22:10:08.363Z,64.27
2022-08-26T22:12:37.406Z,63.73
2022-08-26T22:15:07.499Z,63.68
2022-08-26T22:17:36.416Z,62.99
2022-08-26T22:20:07.753Z,62.85
2022-08-26T22:22:46.187Z,63.32
2022-08-26T22:25:14.866Z,64.23
2022-08-26T22:27:43.741Z,64.97
2022-08-26T22:30:13.667Z,65.10
2022-08-26T22:32:45.056Z,64.52
2022-08-26T22:35:16.693Z,64.49
2022-08-26T22:37:59.526Z,65.19
2022-08-26T22:40:28.747Z,65.33
2022-08-26T22:42:59.978Z,65.11
2022-08-26T22:45:33.253Z,63.54
2022-08-26T22:48:05.092Z,63.33
2022-08-26T22:50:34.000Z,63.03
2022-08-26T22:53:03.172Z,63.89
2022-08-26T22:55:32.082Z,65.08
2022-08-26T22:58:01.073Z,64.98
2022-08-26T23:00:32.299Z,64.15
2022-08-26T23:03:02.832Z,63.65
2022-08-26T23:05:32.741Z,64.49
2022-08-26T23:08:02.655Z,64.94
2022-08-26T23:10:33.271Z,65.04
2022-08-26T23:13:04.161Z,65.17
2022-08-26T23:15:33.147Z,65.25
2022-08-26T23:18:02.887Z,65.46
2022-08-26T23:20:32.857Z,65.76
2022-08-26T23:23:02.267Z,65.67
2022-08-26T23:25:32.810Z,65.33
2022-08-26T23:28:02.693Z,64.68
2022-08-26T23:30:34.620Z,64.78
2022-08-26T23:33:03.580Z,64.71
2022-08-26T23:35:32.575Z,64.57
2022-08-26T23:38:02.163Z,65.27
2022-08-26T23:40:37.164Z,66.11
2022-08-26T23:43:09.786Z,66.32
2022-08-26T23:45:39.577Z,66.61
2022-08-26T23:48:08.879Z,66.82
2022-08-26T23:50:56.335Z,66.78
2022-08-26T23:53:25.229Z,65.86
2022-08-26T23:55:54.532Z,65.16
2022-08-26T23:58:23.626Z,65.42
